Time;durP1;ratioP1;P1;durP2;ratioP2;P2;SDS_P1;SDS_P2;PMS_P1;PMS_P2;Temp;Humidity;BMP_temperature;BMP_pressure;BME280_temperature;BME280_humidity;BME280_pressure;Samples;Min_cycle;Max_cycle;Signal;HPM_P1;HPM_P2
2024/04/08 00:00:05;;;;;;;10.20;5.50;;;;;;;16.37;79.66;100647.04;106286;1257;98000;-82
2024/04/08 00:03:11;;;;;;;16.50;6.80;;;;;;;16.31;79.76;100645.67;106407;1252;97974;-82
2024/04/08 00:05:57;;;;;;;8.90;5.30;;;;;;;16.25;79.98;100646.98;106385;1252;98601;-83
2024/04/08 00:08:42;;;;;;;10.20;5.10;;;;;;;16.20;80.15;100646.57;106380;1253;101966;-82
2024/04/08 00:11:28;;;;;;;9.30;5.00;;;;;;;16.18;80.22;100647.80;106390;1254;99339;-81
2024/04/08 00:14:13;;;;;;;6.20;4.20;;;;;;;16.15;80.41;100648.56;106487;1252;98640;-81
2024/04/08 00:16:58;;;;;;;8.30;4.40;;;;;;;16.12;80.32;100643.77;106175;1258;98091;-81
2024/04/08 00:19:44;;;;;;;6.50;4.30;;;;;;;16.10;80.58;100646.63;106468;1252;97955;-82
2024/04/08 00:22:30;;;;;;;5.20;4.00;;;;;;;16.07;80.66;100644.11;106395;1252;101469;-80
2024/04/08 00:25:15;;;;;;;6.30;4.10;;;;;;;16.05;80.78;100651.30;106355;1253;100214;-81
2024/04/08 00:28:01;;;;;;;7.80;4.00;;;;;;;16.00;81.35;100649.66;106462;1253;97914;-82
2024/04/08 00:30:46;;;;;;;5.90;3.80;;;;;;;15.97;81.29;100647.27;106421;1252;97965;-82
2024/04/08 00:33:33;;;;;;;5.10;3.70;;;;;;;15.94;81.38;100644.42;106292;1256;98506;-81
2024/04/08 00:36:19;;;;;;;7.70;3.80;;;;;;;15.92;81.58;100643.33;106189;1253;102734;-82
2024/04/08 00:39:04;;;;;;;5.60;3.60;;;;;;;15.90;81.81;100642.55;106318;1252;99155;-81
2024/04/08 00:41:49;;;;;;;5.40;3.50;;;;;;;15.88;81.62;100638.28;106433;1255;97943;-82
2024/04/08 00:44:35;;;;;;;8.80;4.00;;;;;;;15.88;81.84;100638.12;106427;1257;97333;-81
2024/04/08 00:47:21;;;;;;;5.40;3.90;;;;;;;15.87;81.90;100641.33;106404;1257;99253;-82
2024/04/08 00:50:07;;;;;;;5.20;3.80;;;;;;;15.85;81.75;100642.52;106438;1256;102731;-81
2024/04/08 00:52:54;;;;;;;7.20;4.40;;;;;;;15.82;82.08;100641.54;106324;1252;99276;-82
2024/04/08 00:55:41;;;;;;;6.20;3.50;;;;;;;15.77;82.36;100630.40;106384;1257;97953;-83
2024/04/08 00:58:27;;;;;;;4.60;3.80;;;;;;;15.73;82.67;100627.52;106509;1256;97951;-83
2024/04/08 01:01:17;;;;;;;6.10;3.90;;;;;;;15.70;82.83;100630.66;106475;1257;98390;-82
2024/04/08 01:04:03;;;;;;;4.20;3.20;;;;;;;15.67;82.73;100631.27;106405;1253;101473;-83
2024/04/08 01:06:48;;;;;;;6.30;4.20;;;;;;;15.65;82.95;100631.52;106521;1252;100625;-82
2024/04/08 01:09:34;;;;;;;9.30;5.20;;;;;;;15.64;83.06;100634.23;106410;1254;97969;-83
2024/04/08 01:12:20;;;;;;;7.20;5.00;;;;;;;15.62;83.23;100642.14;106385;1253;97882;-80
2024/04/08 01:15:06;;;;;;;6.80;5.30;;;;;;;15.59;83.51;100638.88;106212;1257;97870;-82
2024/04/08 01:17:53;;;;;;;8.80;5.10;;;;;;;15.55;83.56;100631.05;106440;1253;101914;-82
2024/04/08 01:20:38;;;;;;;9.30;5.50;;;;;;;15.50;83.57;100623.12;106500;1251;99878;-83
2024/04/08 01:23:25;;;;;;;8.30;5.40;;;;;;;15.46;83.82;100618.70;106403;1257;97895;-82
2024/04/08 01:26:11;;;;;;;10.80;6.20;;;;;;;15.43;83.99;100620.15;106204;1260;98941;-82
2024/04/08 01:28:57;;;;;;;16.90;6.70;;;;;;;15.41;84.41;100620.45;106303;1252;97962;-82
2024/04/08 01:31:42;;;;;;;12.80;6.90;;;;;;;15.38;84.50;100628.35;106433;1253;101382;-83
2024/04/08 01:34:27;;;;;;;11.60;6.10;;;;;;;15.35;84.52;100628.45;106378;1257;99107;-81
2024/04/08 01:37:13;;;;;;;10.90;5.80;;;;;;;15.33;84.72;100626.27;106445;1253;97910;-81
2024/04/08 01:39:58;;;;;;;10.10;5.20;;;;;;;15.30;84.82;100626.70;106374;1252;97969;-81
2024/04/08 01:42:44;;;;;;;9.10;5.30;;;;;;;15.26;85.12;100627.71;106492;1253;96445;-81
2024/04/08 01:45:29;;;;;;;7.50;5.10;;;;;;;15.22;84.90;100628.40;106359;1253;102652;-81
2024/04/08 01:48:15;;;;;;;10.30;5.70;;;;;;;15.17;85.15;100630.30;106402;1253;100490;-82
2024/04/08 01:51:00;;;;;;;9.80;6.20;;;;;;;15.15;85.72;100630.27;106399;1252;98796;-80
2024/04/08 01:53:45;;;;;;;7.40;5.20;;;;;;;15.12;85.78;100629.38;106358;1256;97940;-82
2024/04/08 01:56:31;;;;;;;10.90;6.40;;;;;;;15.09;85.99;100632.16;106295;1254;97918;-81
2024/04/08 01:59:16;;;;;;;9.70;6.10;;;;;;;15.05;86.48;100640.11;106362;1255;101495;-82
2024/04/08 02:02:02;;;;;;;8.00;5.60;;;;;;;15.01;86.54;100638.72;106361;1257;99088;-83
2024/04/08 02:04:47;;;;;;;12.80;6.30;;;;;;;14.97;86.61;100638.16;106450;1254;98036;-83
2024/04/08 02:07:33;;;;;;;8.10;5.70;;;;;;;14.95;86.65;100635.68;106499;1254;97992;-84
2024/04/08 02:10:19;;;;;;;6.70;5.10;;;;;;;14.92;86.76;100636.23;106277;1253;97795;-83
2024/04/08 02:13:04;;;;;;;10.60;6.40;;;;;;;14.90;87.17;100638.65;106451;1253;101343;-82
2024/04/08 02:15:49;;;;;;;7.10;5.50;;;;;;;14.89;87.01;100639.19;106429;1251;99288;-83
2024/04/08 02:18:35;;;;;;;8.30;5.60;;;;;;;14.88;87.19;100642.27;106385;1254;98625;-82
2024/04/08 02:21:21;;;;;;;10.00;6.00;;;;;;;14.85;87.05;100644.39;106255;1256;97974;-83
2024/04/08 02:24:07;;;;;;;11.00;6.20;;;;;;;14.82;87.18;100639.59;106468;1255;97958;-82
2024/04/08 02:26:53;;;;;;;8.10;5.50;;;;;;;14.80;87.15;100628.48;106397;1256;101310;-82
2024/04/08 02:29:39;;;;;;;7.50;5.40;;;;;;;14.78;87.64;100621.39;106453;1253;99089;-83
2024/04/08 02:32:25;;;;;;;8.70;6.50;;;;;;;14.75;87.61;100618.54;106404;1253;97941;-83
2024/04/08 02:35:10;;;;;;;8.00;6.10;;;;;;;14.71;87.65;100618.22;106254;1254;97902;-83
2024/04/08 02:37:56;;;;;;;8.90;6.40;;;;;;;14.66;87.54;100619.49;106354;1252;97975;-82
2024/04/08 02:40:41;;;;;;;8.50;6.50;;;;;;;14.62;87.62;100627.09;106451;1253;101341;-84
2024/04/08 02:43:27;;;;;;;12.70;6.70;;;;;;;14.59;87.70;100622.04;106298;1252;99079;-82
2024/04/08 02:46:12;;;;;;;9.00;5.80;;;;;;;14.55;87.70;100621.46;106240;1260;97972;-83
2024/04/08 02:48:58;;;;;;;10.40;7.50;;;;;;;14.53;88.03;100620.19;106314;1252;98014;-83
2024/04/08 02:51:43;;;;;;;11.40;7.30;;;;;;;14.51;88.12;100619.58;106505;1252;97968;-83
2024/04/08 02:54:29;;;;;;;8.30;6.10;;;;;;;14.47;87.95;100624.09;106387;1253;101344;-80
2024/04/08 02:57:14;;;;;;;12.90;6.40;;;;;;;14.43;88.24;100622.58;106565;1252;99782;-82
2024/04/08 03:00:00;;;;;;;9.70;5.90;;;;;;;14.40;88.08;100619.42;106369;1253;106377;-83
2024/04/08 03:02:46;;;;;;;7.90;5.60;;;;;;;14.36;88.31;100622.55;106627;1253;97865;-84
2024/04/08 03:05:31;;;;;;;9.30;6.80;;;;;;;14.32;88.58;100613.90;106478;1257;98388;-82
2024/04/08 03:08:17;;;;;;;9.80;6.40;;;;;;;14.28;89.13;100611.40;106627;1252;102058;-84
2024/04/08 03:11:04;;;;;;;8.20;6.30;;;;;;;14.24;89.30;100604.64;106544;1252;99177;-82
2024/04/08 03:13:50;;;;;;;8.60;5.90;;;;;;;14.20;89.66;100602.23;106719;1268;99003;-82
2024/04/08 03:16:36;;;;;;;7.30;5.90;;;;;;;14.19;90.02;100595.33;106500;1254;97996;-82
2024/04/08 03:19:22;;;;;;;9.60;6.20;;;;;;;14.16;89.96;100591.02;106703;1255;97956;-82
2024/04/08 03:22:07;;;;;;;9.30;6.30;;;;;;;14.13;89.89;100586.05;106369;1255;101336;-83
2024/04/08 03:24:53;;;;;;;11.30;7.00;;;;;;;14.09;89.75;100586.89;106313;1252;100335;-82
2024/04/08 03:27:41;;;;;;;10.30;7.70;;;;;;;14.08;89.80;100587.21;106334;1253;98521;-84
2024/04/08 03:30:27;;;;;;;18.20;8.00;;;;;;;14.07;90.03;100591.15;106259;1252;98074;-82
2024/04/08 03:33:12;;;;;;;11.50;8.50;;;;;;;14.02;89.99;100588.91;106349;1257;98609;-80
2024/04/08 03:35:58;;;;;;;23.10;6.80;;;;;;;13.96;89.86;100594.81;106157;1252;101344;-82
2024/04/08 03:38:44;;;;;;;14.20;6.30;;;;;;;13.91;90.06;100594.77;106235;1258;99156;-81
2024/04/08 03:41:30;;;;;;;15.00;7.20;;;;;;;13.86;89.91;100589.85;106269;1254;97943;-82
2024/04/08 03:44:15;;;;;;;14.40;7.70;;;;;;;13.81;89.69;100593.58;106342;1258;98087;-82
2024/04/08 03:47:01;;;;;;;13.50;8.90;;;;;;;13.76;89.71;100596.48;106524;1258;98080;-82
2024/04/08 03:49:52;;;;;;;9.70;7.50;;;;;;;13.72;90.01;100600.26;106443;1253;102613;-82
2024/04/08 03:52:37;;;;;;;12.20;6.00;;;;;;;13.69;90.02;100596.90;106406;1253;99051;-84
2024/04/08 03:55:27;;;;;;;13.60;6.80;;;;;;;13.67;90.04;100596.77;106478;1257;97981;-82
2024/04/08 03:58:12;;;;;;;9.60;6.20;;;;;;;13.64;90.13;100587.55;106377;1253;97956;-83
2024/04/08 04:00:58;;;;;;;12.10;7.00;;;;;;;13.60;90.12;100580.99;106359;1254;98033;-84
2024/04/08 04:03:43;;;;;;;12.00;7.30;;;;;;;13.55;90.30;100580.54;106309;1253;102571;-81
2024/04/08 04:06:30;;;;;;;10.50;7.20;;;;;;;13.52;90.32;100583.39;106336;1255;100359;-84
2024/04/08 04:09:15;;;;;;;10.00;7.40;;;;;;;13.51;90.64;100587.86;106509;1256;97895;-84
2024/04/08 04:12:01;;;;;;;12.10;7.40;;;;;;;13.51;91.15;100592.41;106354;1253;97909;-83
2024/04/08 04:14:46;;;;;;;7.50;6.70;;;;;;;13.51;91.41;100596.18;106420;1251;97895;-82
2024/04/08 04:17:32;;;;;;;10.60;7.00;;;;;;;13.51;91.50;100605.29;106465;1258;102583;-81
2024/04/08 04:20:21;;;;;;;7.70;6.00;;;;;;;13.51;91.58;100606.61;106394;1257;99085;-82
2024/04/08 04:23:16;;;;;;;15.30;7.90;;;;;;;13.49;91.64;100605.04;106476;1252;98203;-82
2024/04/08 04:26:02;;;;;;;14.50;6.80;;;;;;;13.47;91.65;100605.98;106552;1257;98079;-83
2024/04/08 04:28:47;;;;;;;11.60;6.70;;;;;;;13.45;91.87;100610.41;106658;1257;98142;-82
2024/04/08 04:31:44;;;;;;;18.90;6.90;;;;;;;13.41;91.90;100614.30;106439;1253;102663;-82
2024/04/08 04:34:29;;;;;;;11.80;6.90;;;;;;;13.39;92.01;100610.48;106409;1258;99282;-82
2024/04/08 04:37:15;;;;;;;8.10;6.50;;;;;;;13.38;92.08;100607.63;106430;1257;98065;-83
2024/04/08 04:40:00;;;;;;;6.60;5.90;;;;;;;13.37;92.18;100610.61;106580;1256;97948;-83
2024/04/08 04:42:46;;;;;;;9.10;6.80;;;;;;;13.37;92.32;100610.82;106433;1253;97901;-82
2024/04/08 04:45:32;;;;;;;10.40;7.20;;;;;;;13.37;92.68;100607.42;106565;1253;102527;-83
2024/04/08 04:48:17;;;;;;;8.80;6.90;;;;;;;13.37;92.93;100604.04;106474;1252;100361;-82
2024/04/08 04:51:03;;;;;;;11.30;7.40;;;;;;;13.38;92.98;100600.80;106548;1257;98990;-83
2024/04/08 04:53:48;;;;;;;13.80;8.10;;;;;;;13.39;93.28;100603.66;106399;1257;99132;-83
2024/04/08 04:56:34;;;;;;;15.90;9.00;;;;;;;13.40;93.40;100599.23;106468;1258;97969;-83
2024/04/08 04:59:21;;;;;;;17.20;8.50;;;;;;;13.44;93.79;100593.02;106337;1253;101345;-81
2024/04/08 05:02:07;;;;;;;12.20;8.50;;;;;;;13.48;94.12;100590.11;106585;1253;100504;-80
2024/04/08 05:04:52;;;;;;;13.90;9.10;;;;;;;13.53;94.43;100592.79;106548;1256;98071;-82
2024/04/08 05:07:37;;;;;;;12.50;8.00;;;;;;;13.58;94.56;100591.96;106486;1260;98026;-82
2024/04/08 05:10:23;;;;;;;15.30;8.80;;;;;;;13.64;95.08;100597.77;106612;1253;98401;-82
2024/04/08 05:13:08;;;;;;;10.70;7.80;;;;;;;13.70;95.35;100601.04;106416;1253;101335;-81
2024/04/08 05:16:04;;;;;;;13.50;7.80;;;;;;;13.77;95.63;100606.05;106519;1254;99140;-81
2024/04/08 05:18:49;;;;;;;9.90;7.30;;;;;;;13.84;95.59;100610.30;106500;1257;97802;-82
2024/04/08 05:21:35;;;;;;;13.60;8.10;;;;;;;13.90;96.02;100609.56;106419;1253;97959;-82
2024/04/08 05:24:20;;;;;;;10.20;7.50;;;;;;;13.97;96.54;100610.15;106451;1257;98026;-82
2024/04/08 05:27:06;;;;;;;10.80;7.30;;;;;;;14.01;97.03;100609.35;106489;1257;101358;-85
2024/04/08 05:29:51;;;;;;;10.80;7.40;;;;;;;14.07;97.29;100609.09;106638;1253;100073;-82
2024/04/08 05:32:36;;;;;;;9.90;6.60;;;;;;;14.14;97.08;100603.36;106577;1253;97963;-83
2024/04/08 05:35:22;;;;;;;13.90;8.70;;;;;;;14.21;96.97;100599.34;106585;1257;97786;-84
2024/04/08 05:38:07;;;;;;;8.90;7.40;;;;;;;14.28;97.09;100598.98;106605;1256;99565;-83
2024/04/08 05:40:53;;;;;;;12.60;7.90;;;;;;;14.35;96.85;100600.02;106625;1252;101466;-82
2024/04/08 05:43:38;;;;;;;11.30;7.70;;;;;;;14.43;96.87;100607.53;106382;1258;99845;-81
2024/04/08 05:46:24;;;;;;;10.00;6.80;;;;;;;14.49;97.44;100610.63;106525;1252;98372;-82
2024/04/08 05:49:10;;;;;;;11.40;6.80;;;;;;;14.56;97.45;100610.20;106324;1260;97957;-80
2024/04/08 05:51:56;;;;;;;10.80;7.50;;;;;;;14.64;97.93;100609.61;106555;1257;97971;-81
2024/04/08 05:54:41;;;;;;;10.00;8.10;;;;;;;14.73;98.53;100609.09;106431;1255;101908;-81
2024/04/08 05:57:27;;;;;;;9.60;6.90;;;;;;;14.81;98.73;100605.19;106427;1253;99198;-83
2024/04/08 06:00:18;;;;;;;12.30;7.50;;;;;;;14.90;98.71;100603.79;106336;1261;97853;-81
2024/04/08 06:03:04;;;;;;;;;;;;;;;14.98;98.59;100598.16;106450;1253;98027;-81
2024/04/08 06:05:51;;;;;;;12.10;7.90;;;;;;;15.04;98.97;100601.57;106675;1253;96455;-82
2024/04/08 06:08:37;;;;;;;12.00;7.80;;;;;;;15.14;98.70;100604.50;106324;1258;112564;-82
2024/04/08 06:11:22;;;;;;;14.00;8.20;;;;;;;15.21;98.84;100599.35;106546;1254;99709;-83
2024/04/08 06:14:07;;;;;;;10.30;7.30;;;;;;;15.29;98.83;100600.05;106538;1253;97997;-81
2024/04/08 06:16:53;;;;;;;11.10;7.80;;;;;;;15.36;98.91;100609.27;106394;1253;98030;-82
2024/04/08 06:19:39;;;;;;;12.00;8.80;;;;;;;15.43;99.05;100611.48;106368;1253;97965;-82
2024/04/08 06:22:25;;;;;;;12.80;8.50;;;;;;;15.50;99.49;100611.73;106447;1255;101343;-80
2024/04/08 06:25:11;;;;;;;14.00;8.50;;;;;;;15.59;99.57;100606.73;106525;1252;99076;-83
2024/04/08 06:27:57;;;;;;;10.10;7.80;;;;;;;15.68;99.97;100605.88;106410;1255;99386;-81
2024/04/08 06:30:42;;;;;;;12.40;8.20;;;;;;;15.78;99.76;100603.59;106503;1253;97985;-81
2024/04/08 06:33:28;;;;;;;10.00;8.20;;;;;;;15.87;99.80;100600.56;106443;1257;97950;-82
2024/04/08 06:36:14;;;;;;;11.60;7.90;;;;;;;15.99;100.00;100603.24;106147;1256;103276;-82
2024/04/08 06:38:59;;;;;;;16.60;9.50;;;;;;;16.09;100.00;100603.84;106212;1253;99231;-82
2024/04/08 06:41:45;;;;;;;22.50;11.40;;;;;;;16.18;99.86;100603.05;106330;1256;98951;-81
2024/04/08 06:44:31;;;;;;;13.20;9.20;;;;;;;16.28;100.00;100599.30;106478;1256;99209;-82
2024/04/08 06:47:18;;;;;;;10.80;7.80;;;;;;;16.39;100.00;100599.76;106532;1254;97961;-84
2024/04/08 06:50:04;;;;;;;15.60;8.00;;;;;;;16.50;100.00;100604.54;106647;1253;102568;-84
2024/04/08 06:52:50;;;;;;;12.10;7.50;;;;;;;16.59;100.00;100607.02;106638;1255;100296;-82
2024/04/08 06:55:36;;;;;;;10.60;7.00;;;;;;;16.70;100.00;100604.06;106703;1256;97876;-81
2024/04/08 06:58:22;;;;;;;12.30;7.30;;;;;;;16.81;100.00;100603.79;106438;1253;97915;-82
2024/04/08 07:01:07;;;;;;;9.70;6.40;;;;;;;16.92;100.00;100606.98;106250;1252;98534;-86
2024/04/08 07:03:53;;;;;;;9.70;6.70;;;;;;;17.03;99.96;100605.34;106112;1253;102209;-81
2024/04/08 07:06:39;;;;;;;7.40;5.80;;;;;;;17.15;100.00;100600.89;106390;1253;100005;-84
2024/04/08 07:09:29;;;;;;;9.40;6.30;;;;;;;17.25;99.99;100598.30;106379;1258;202082;-85
2024/04/08 07:12:15;;;;;;;9.30;6.30;;;;;;;17.36;99.99;100597.09;106586;1253;97885;-83
2024/04/08 07:15:02;;;;;;;9.80;6.10;;;;;;;17.47;99.94;100597.27;106370;1254;98503;-82
2024/04/08 07:17:48;;;;;;;9.10;5.90;;;;;;;17.59;99.98;100598.02;106772;1255;101344;-85
2024/04/08 07:20:34;;;;;;;8.70;6.80;;;;;;;17.70;99.72;100602.55;106584;1261;100654;-86
2024/04/08 07:23:20;;;;;;;11.40;6.60;;;;;;;17.83;99.79;100606.39;106600;1256;97936;-87
2024/04/08 07:26:05;;;;;;;8.80;5.30;;;;;;;17.95;99.64;100605.60;106510;1256;97952;-88
2024/04/08 07:28:51;;;;;;;12.80;5.30;;;;;;;18.06;99.73;100603.90;106574;1257;97999;-86
2024/04/08 07:31:37;;;;;;;12.10;7.10;;;;;;;18.16;99.26;100603.49;106617;1258;102539;-87
2024/04/08 07:34:22;;;;;;;10.90;6.30;;;;;;;18.26;98.97;100603.20;106757;1252;100388;-87
2024/04/08 07:37:08;;;;;;;9.00;4.90;;;;;;;18.38;98.74;100602.65;106621;1253;98092;-87
2024/04/08 07:39:54;;;;;;;11.10;5.80;;;;;;;18.53;98.55;100599.25;106588;1252;98208;-87
2024/04/08 07:42:41;;;;;;;9.90;8.60;;;;;;;18.66;98.02;100601.18;106504;1259;98417;-83
2024/04/08 07:45:27;;;;;;;10.50;8.10;;;;;;;18.76;97.73;100592.70;106318;1252;101837;-85
2024/04/08 07:48:14;;;;;;;11.50;9.70;;;;;;;18.85;97.50;100592.30;106549;1252;100368;-86
2024/04/08 07:50:59;;;;;;;10.00;6.10;;;;;;;18.94;96.34;100593.18;106452;1253;97975;-85
2024/04/08 07:53:46;;;;;;;8.30;5.30;;;;;;;19.04;96.26;100591.80;106239;1261;97979;-87
2024/04/08 07:56:33;;;;;;;9.80;6.00;;;;;;;19.17;96.15;100594.45;106314;1253;98472;-86
2024/04/08 07:59:19;;;;;;;8.70;6.20;;;;;;;19.31;96.28;100588.84;106133;1253;101383;-86
2024/04/08 08:02:05;;;;;;;10.00;6.60;;;;;;;19.46;95.60;100581.24;106350;1252;100217;-85
2024/04/08 08:04:51;;;;;;;9.30;5.70;;;;;;;19.58;94.73;100578.36;106127;1261;98023;-85
2024/04/08 08:07:37;;;;;;;14.40;6.40;;;;;;;19.68;94.45;100578.44;106454;1257;98426;-84
2024/04/08 08:10:23;;;;;;;9.10;5.50;;;;;;;19.77;93.31;100582.45;106429;1255;98609;-86
2024/04/08 08:13:09;;;;;;;11.30;8.70;;;;;;;19.85;93.00;100585.50;106268;1253;102103;-85
2024/04/08 08:15:56;;;;;;;8.00;7.10;;;;;;;19.93;92.28;100581.94;106300;1253;99162;-85
2024/04/08 08:18:41;;;;;;;9.80;6.30;;;;;;;20.03;92.11;100576.11;106295;1256;98962;-85
2024/04/08 08:21:27;;;;;;;9.10;6.60;;;;;;;20.16;91.95;100568.84;106088;1253;97968;-86
2024/04/08 08:24:13;;;;;;;12.10;8.70;;;;;;;20.30;91.59;100572.84;106312;1254;98412;-80
2024/04/08 08:26:58;;;;;;;8.50;6.10;;;;;;;20.42;91.12;100573.44;106170;1253;102588;-81
2024/04/08 08:29:50;;;;;;;12.30;8.80;;;;;;;20.51;90.80;100571.28;105983;1255;99369;-80
2024/04/08 08:32:36;;;;;;;11.80;7.80;;;;;;;20.58;89.92;100568.38;106170;1258;99474;-80
2024/04/08 08:35:21;;;;;;;12.80;6.70;;;;;;;20.64;89.00;100562.41;106178;1253;98522;-80
2024/04/08 08:38:07;;;;;;;7.90;5.70;;;;;;;20.74;89.02;100560.23;106035;1253;97891;-80
2024/04/08 08:41:06;;;;;;;9.80;7.90;;;;;;;20.87;89.21;100562.31;106066;1255;102741;-80
2024/04/08 08:43:55;;;;;;;7.90;4.20;;;;;;;21.01;88.37;100558.02;106180;1253;99107;-80
2024/04/08 08:46:41;;;;;;;5.40;3.90;;;;;;;21.13;88.00;100557.11;107353;1255;97993;-80
2024/04/08 08:49:29;;;;;;;83.20;59.10;;;;;;;21.26;87.91;100554.36;105907;1256;97889;-81
2024/04/08 08:52:15;;;;;;;62.10;42.10;;;;;;;21.39;87.26;100548.05;106032;1253;97946;-81
2024/04/08 08:55:02;;;;;;;34.20;24.50;;;;;;;21.54;87.32;100551.95;106079;1258;102234;-80
2024/04/08 08:57:49;;;;;;;18.30;10.10;;;;;;;21.65;86.75;100548.23;106940;1255;101002;-81
2024/04/08 09:00:40;;;;;;;9.70;6.80;;;;;;;21.75;85.52;100546.07;106240;1255;140447;-81
2024/04/08 09:03:28;;;;;;;43.70;25.30;;;;;;;21.88;85.18;100546.62;106537;1257;97876;-81
2024/04/08 09:06:14;;;;;;;131.20;77.20;;;;;;;22.00;84.32;100550.00;105819;1260;98496;-81
2024/04/08 09:09:02;;;;;;;23.40;15.10;;;;;;;22.09;83.61;100547.65;106324;1256;101358;-81
2024/04/08 09:11:50;;;;;;;14.80;10.00;;;;;;;22.19;82.54;100551.76;106155;1258;99728;-80
2024/04/08 09:14:36;;;;;;;11.10;6.00;;;;;;;22.26;81.86;100549.79;106211;1260;98153;-80
2024/04/08 09:17:21;;;;;;;5.70;3.90;;;;;;;22.32;80.51;100545.27;106220;1258;97944;-80
2024/04/08 09:20:08;;;;;;;5.90;3.80;;;;;;;22.37;79.76;100544.37;105638;1262;99791;-78
2024/04/08 09:22:53;;;;;;;5.40;3.10;;;;;;;22.45;79.76;100546.92;105660;1258;101564;-80
2024/04/08 09:25:40;;;;;;;8.90;3.30;;;;;;;22.53;79.14;100548.05;105579;1258;99111;-78
2024/04/08 09:28:26;;;;;;;4.90;2.90;;;;;;;22.61;78.79;100547.47;105616;1261;99044;-80
2024/04/08 09:31:13;;;;;;;7.00;3.00;;;;;;;22.68;78.34;100536.91;105597;1261;97997;-80
2024/04/08 09:33:59;;;;;;;8.90;3.40;;;;;;;22.76;78.60;100534.30;105625;1256;98420;-79
2024/04/08 09:36:45;;;;;;;5.00;2.80;;;;;;;22.84;78.47;100533.67;105584;1261;102619;-80
2024/04/08 09:39:32;;;;;;;7.50;3.20;;;;;;;22.90;77.96;100534.35;105639;1256;100501;-80
2024/04/08 09:42:19;;;;;;;5.10;2.80;;;;;;;22.96;77.80;100536.55;105596;1257;97965;-80
2024/04/08 09:45:05;;;;;;;4.20;2.70;;;;;;;23.03;77.75;100537.88;105462;1260;98007;-79
2024/04/08 09:47:54;;;;;;;6.40;2.80;;;;;;;23.13;77.15;100537.08;105429;1258;98410;-79
2024/04/08 09:50:42;;;;;;;5.30;2.70;;;;;;;23.20;75.82;100535.73;105413;1260;103346;-79
2024/04/08 09:53:32;;;;;;;6.60;2.90;;;;;;;23.25;75.35;100533.44;105457;1261;99158;-79
2024/04/08 09:56:18;;;;;;;4.10;2.80;;;;;;;23.30;75.47;100528.40;106680;1261;98779;-80
2024/04/08 09:59:13;;;;;;;4.50;2.90;;;;;;;23.36;75.32;100526.70;105659;1261;97966;-80
2024/04/08 10:01:59;;;;;;;5.00;2.50;;;;;;;23.42;74.76;100520.68;105585;1260;98408;-80
2024/04/08 10:04:47;;;;;;;8.40;2.40;;;;;;;23.49;73.86;100521.02;105672;1256;101305;-80
2024/04/08 10:07:35;;;;;;;4.60;3.10;;;;;;;23.57;73.83;100517.63;106221;1259;99111;-80
2024/04/08 10:10:21;;;;;;;5.60;2.80;;;;;;;23.62;74.02;100515.02;105578;1259;106419;-81
2024/04/08 10:13:09;;;;;;;5.10;2.30;;;;;;;23.63;73.07;100515.13;105615;1260;97978;-81
2024/04/08 10:16:06;;;;;;;7.10;2.20;;;;;;;23.62;72.09;100511.55;105615;1261;98484;-79
2024/04/08 10:18:53;;;;;;;5.30;2.70;;;;;;;23.62;71.88;100508.55;106351;1260;101401;-80
2024/04/08 10:21:38;;;;;;;8.60;2.80;;;;;;;23.63;71.34;100503.84;105650;1259;99102;-79
2024/04/08 10:24:36;;;;;;;6.30;2.50;;;;;;;23.69;71.42;100496.67;105621;1259;98169;-79
2024/04/08 10:27:25;;;;;;;5.50;2.90;;;;;;;23.77;71.35;100488.35;105702;1261;97995;-80
2024/04/08 10:30:14;;;;;;;10.90;3.40;;;;;;;23.86;71.77;100478.10;108422;1257;95548;-81
2024/04/08 10:33:00;;;;;;;4.70;2.30;;;;;;;23.95;72.14;100474.47;106593;1261;101364;-80
2024/04/08 10:35:46;;;;;;;3.70;2.30;;;;;;;24.01;71.59;100473.08;105985;1258;100409;-80
2024/04/08 10:38:31;;;;;;;7.00;2.80;;;;;;;24.09;71.28;100472.10;105610;1262;97968;-81
2024/04/08 10:41:17;;;;;;;7.90;3.00;;;;;;;24.15;71.09;100472.69;105487;1260;97971;-79
2024/04/08 10:44:03;;;;;;;4.90;2.40;;;;;;;24.22;70.54;100479.66;105292;1261;98506;-80
2024/04/08 10:46:48;;;;;;;5.10;2.60;;;;;;;24.27;69.80;100487.21;105515;1261;101356;-80
2024/04/08 10:49:35;;;;;;;4.40;2.40;;;;;;;24.31;70.08;100487.09;105552;1261;99136;-80
2024/04/08 10:52:22;;;;;;;3.40;2.30;;;;;;;24.35;69.56;100488.87;105403;1267;98964;-81
2024/04/08 10:55:08;;;;;;;5.70;2.50;;;;;;;24.39;68.72;100486.13;105631;1261;97984;-80
2024/04/08 10:57:54;;;;;;;4.80;2.60;;;;;;;24.44;68.44;100485.44;105440;1260;99504;-80
2024/04/08 11:00:39;;;;;;;4.50;2.20;;;;;;;24.48;67.69;100479.50;105662;1256;101349;-79
2024/04/08 11:03:26;;;;;;;8.20;2.40;;;;;;;24.54;68.08;100478.73;105607;1256;100481;-79
2024/04/08 11:06:13;;;;;;;5.10;2.10;;;;;;;24.61;68.55;100480.33;105962;1258;100106;-79
2024/04/08 11:08:58;;;;;;;4.80;2.40;;;;;;;24.66;67.58;100477.89;105609;1260;98495;-79
2024/04/08 11:11:44;;;;;;;6.50;2.70;;;;;;;24.70;67.08;100477.48;105525;1260;97871;-79
2024/04/08 11:14:29;;;;;;;6.30;2.50;;;;;;;24.74;66.73;100477.80;105592;1267;101336;-79
2024/04/08 11:17:15;;;;;;;8.20;2.50;;;;;;;24.77;66.82;100473.69;105570;1261;99198;-79
2024/04/08 11:20:08;;;;;;;4.50;2.30;;;;;;;24.83;67.40;100468.44;105577;1258;97945;-80
2024/04/08 11:22:54;;;;;;;11.80;4.80;;;;;;;24.89;66.87;100463.97;105549;1261;97846;-80
2024/04/08 11:25:40;;;;;;;6.50;2.40;;;;;;;24.94;67.35;100460.54;105498;1260;98510;-80
2024/04/08 11:28:25;;;;;;;4.90;2.80;;;;;;;25.02;66.38;100458.18;105329;1258;101328;-79
2024/04/08 11:31:11;;;;;;;3.30;2.20;;;;;;;25.03;65.61;100458.77;105285;1258;99282;-79
2024/04/08 11:33:56;;;;;;;3.90;2.60;;;;;;;25.01;65.49;100459.39;105493;1261;98736;-79
2024/04/08 11:36:42;;;;;;;5.80;2.70;;;;;;;25.00;65.19;100453.42;105548;1260;97902;-80
2024/04/08 11:39:27;;;;;;;8.30;3.00;;;;;;;25.01;65.19;100452.77;105572;1271;98459;-80
2024/04/08 11:42:13;;;;;;;26.80;9.90;;;;;;;25.03;65.52;100447.10;105598;1268;102616;-80
2024/04/08 11:45:03;;;;;;;6.80;3.00;;;;;;;25.10;65.42;100443.48;105432;1261;100341;-79
2024/04/08 11:47:48;;;;;;;7.30;3.50;;;;;;;25.18;65.73;100439.59;105549;1258;98010;-80
2024/04/08 11:50:34;;;;;;;22.40;8.40;;;;;;;25.26;65.63;100439.90;105420;1262;98652;-80
2024/04/08 11:53:20;;;;;;;6.80;3.00;;;;;;;25.29;64.82;100438.61;105686;1261;97966;-80
2024/04/08 11:56:08;;;;;;;7.30;2.90;;;;;;;25.28;63.32;100436.85;105587;1258;103063;-78
2024/04/08 11:58:53;;;;;;;18.00;6.60;;;;;;;25.29;62.87;100437.99;107473;1257;99863;-79
2024/04/08 12:01:41;;;;;;;14.80;4.90;;;;;;;25.36;62.84;100437.95;105210;1257;98193;-79
2024/04/08 12:04:26;;;;;;;9.20;3.40;;;;;;;25.44;62.47;100432.30;105517;1261;98026;-79
2024/04/08 12:07:15;;;;;;;6.80;2.50;;;;;;;25.51;62.65;100429.23;105621;1260;98089;-79
2024/04/08 12:10:01;;;;;;;6.20;2.40;;;;;;;25.52;61.97;100421.98;105652;1263;101412;-80
2024/04/08 12:12:47;;;;;;;8.30;2.90;;;;;;;25.52;61.23;100416.55;105597;1263;100364;-80
2024/04/08 12:15:32;;;;;;;7.40;3.20;;;;;;;25.53;62.08;100412.86;105438;1261;98826;-80
2024/04/08 12:18:18;;;;;;;8.40;3.60;;;;;;;25.54;61.85;100412.20;105504;1262;98029;-80
2024/04/08 12:21:03;;;;;;;8.40;3.60;;;;;;;25.56;61.53;100412.44;105582;1261;98603;-80
2024/04/08 12:23:49;;;;;;;36.10;10.90;;;;;;;25.62;61.68;100413.64;105636;1260;101396;-80
2024/04/08 12:26:34;;;;;;;37.40;14.00;;;;;;;25.68;61.27;100413.76;105470;1261;99141;-80
2024/04/08 12:29:20;;;;;;;15.60;6.50;;;;;;;25.73;61.49;100407.70;105643;1258;98401;-80
2024/04/08 12:32:05;;;;;;;7.10;2.50;;;;;;;25.79;61.59;100408.30;105478;1256;97882;-80
2024/04/08 12:34:51;;;;;;;7.80;2.80;;;;;;;25.87;61.67;100404.58;105450;1260;98524;-78
2024/04/08 12:37:37;;;;;;;10.80;2.70;;;;;;;25.96;61.39;100400.76;105339;1259;101369;-78